createdAt,value
2019-01-31T00:00:54.883Z,1.20
2019-01-31T00:03:36.462Z,1.20
2019-01-31T00:06:16.952Z,1.10
2019-01-31T00:08:57.861Z,1.20
2019-01-31T00:11:38.859Z,1.30
2019-01-31T00:14:20.052Z,1.20
2019-01-31T00:17:00.605Z,1.30
2019-01-31T00:20:08.186Z,1.20
2019-01-31T00:23:15.448Z,1.20
2019-01-31T00:26:22.761Z,1.20
2019-01-31T00:29:14.360Z,1.20
2019-01-31T00:32:06.372Z,1.10
2019-01-31T00:35:13.911Z,1.10
2019-01-31T00:38:21.186Z,1.00
2019-01-31T00:41:23.893Z,1.00
2019-01-31T00:44:04.995Z,1.10
2019-01-31T00:46:45.646Z,1.20
2019-01-31T00:49:26.393Z,1.20
2019-01-31T00:52:07.662Z,1.20
2019-01-31T00:54:48.920Z,1.10
2019-01-31T00:57:30.451Z,1.10
2019-01-31T01:00:11.055Z,1.20
2019-01-31T01:02:52.055Z,1.20
2019-01-31T01:05:33.124Z,1.00
2019-01-31T01:08:13.909Z,1.10
2019-01-31T01:10:54.736Z,1.00
2019-01-31T01:13:35.850Z,1.00
2019-01-31T01:16:16.492Z,1.00
2019-01-31T01:18:57.711Z,1.00
2019-01-31T01:21:39.042Z,0.90
2019-01-31T01:24:20.279Z,0.90
2019-01-31T01:27:01.195Z,0.90
2019-01-31T01:29:41.927Z,0.80
2019-01-31T01:32:22.775Z,0.80
2019-01-31T01:35:03.511Z,0.80
2019-01-31T01:37:44.354Z,0.80
2019-01-31T01:40:25.384Z,0.80
2019-01-31T01:43:05.883Z,0.70
2019-01-31T01:45:46.595Z,0.70
2019-01-31T01:48:27.839Z,0.70
2019-01-31T01:51:08.380Z,0.70
2019-01-31T01:53:49.440Z,0.70
2019-01-31T01:56:31.042Z,0.70
2019-01-31T01:59:12.335Z,0.70
2019-01-31T02:01:53.257Z,0.70
2019-01-31T02:04:34.119Z,0.70
2019-01-31T02:07:14.634Z,0.70
2019-01-31T02:09:55.776Z,0.60
2019-01-31T02:12:36.670Z,0.50
2019-01-31T02:15:17.486Z,0.50
2019-01-31T02:17:58.163Z,0.60
2019-01-31T02:20:39.328Z,0.60
2019-01-31T02:23:19.694Z,0.60
2019-01-31T02:26:00.432Z,0.60
2019-01-31T02:28:41.737Z,0.60
2019-01-31T02:31:22.763Z,0.50
2019-01-31T02:34:03.404Z,0.50
2019-01-31T02:36:44.933Z,0.50
2019-01-31T02:39:25.375Z,0.60
2019-01-31T02:42:05.792Z,0.60
2019-01-31T02:44:46.397Z,0.60
2019-01-31T02:47:42.603Z,0.70
2019-01-31T02:50:49.893Z,0.60
2019-01-31T02:53:57.173Z,0.60
2019-01-31T02:57:04.736Z,0.70
2019-01-31T03:00:12.035Z,0.70
2019-01-31T03:03:19.440Z,0.80
2019-01-31T03:06:13.248Z,0.90
2019-01-31T03:09:20.547Z,0.80
2019-01-31T03:12:11.219Z,0.80
2019-01-31T03:15:18.516Z,0.70
2019-01-31T03:18:25.872Z,0.70
2019-01-31T03:21:06.331Z,0.70
2019-01-31T03:23:47.249Z,0.80
2019-01-31T03:26:28.063Z,0.70
2019-01-31T03:29:35.644Z,0.80
2019-01-31T03:32:42.917Z,0.80
2019-01-31T03:35:50.464Z,0.80
2019-01-31T03:38:45.391Z,0.80
2019-01-31T03:41:52.687Z,0.90
2019-01-31T03:44:43.006Z,0.90
2019-01-31T03:47:50.276Z,0.80
2019-01-31T03:50:57.573Z,0.80
2019-01-31T03:53:38.348Z,0.80
2019-01-31T03:56:18.817Z,0.80
2019-01-31T03:58:59.456Z,0.70
2019-01-31T04:01:40.394Z,0.70
2019-01-31T04:04:20.828Z,0.60
2019-01-31T04:07:01.777Z,0.70
2019-01-31T04:09:42.181Z,0.70
2019-01-31T04:12:22.858Z,0.80
2019-01-31T04:15:04.165Z,0.80
2019-01-31T04:17:44.917Z,0.70
2019-01-31T04:20:26.140Z,0.70
2019-01-31T04:23:06.699Z,0.70
2019-01-31T04:25:47.581Z,0.70
2019-01-31T04:28:30.653Z,0.70
2019-01-31T04:31:11.632Z,0.70
2019-01-31T04:33:52.284Z,0.70
2019-01-31T04:36:33.305Z,0.70
2019-01-31T04:39:13.979Z,0.70
2019-01-31T04:41:54.952Z,0.70
2019-01-31T04:44:35.547Z,0.60
2019-01-31T04:47:16.216Z,0.70
2019-01-31T04:49:57.288Z,0.70
2019-01-31T04:52:37.688Z,0.60
2019-01-31T04:55:18.427Z,0.60
2019-01-31T04:57:59.288Z,0.60
2019-01-31T05:00:28.683Z,0.60
2019-01-31T05:03:16.860Z,0.60
2019-01-31T05:05:45.961Z,0.60
2019-01-31T05:08:34.406Z,0.70
2019-01-31T05:11:03.530Z,0.70
2019-01-31T05:13:51.724Z,0.80
2019-01-31T05:16:40.041Z,0.70
2019-01-31T05:19:28.548Z,0.70
2019-01-31T05:22:16.759Z,0.70
2019-01-31T05:25:05.439Z,0.60
2019-01-31T05:27:53.927Z,0.60
2019-01-31T05:30:42.392Z,0.60
2019-01-31T05:33:30.580Z,0.60
2019-01-31T05:36:19.167Z,0.60
2019-01-31T05:39:08.015Z,0.50
2019-01-31T05:41:48.919Z,0.50
2019-01-31T05:44:29.708Z,0.50
2019-01-31T05:47:10.960Z,0.50
2019-01-31T05:49:51.817Z,0.50
2019-01-31T05:52:33.330Z,0.40
2019-01-31T05:55:14.239Z,0.50
2019-01-31T05:57:54.937Z,0.50
2019-01-31T06:00:37.897Z,0.60
2019-01-31T06:03:18.931Z,0.60
2019-01-31T06:06:00.138Z,0.70
2019-01-31T06:08:29.231Z,0.60
2019-01-31T06:11:07.140Z,0.70
2019-01-31T06:13:29.255Z,0.60
2019-01-31T06:15:58.411Z,0.60
2019-01-31T06:18:27.483Z,0.50
2019-01-31T06:20:56.887Z,0.60
2019-01-31T06:23:25.998Z,0.60
2019-01-31T06:26:14.288Z,0.60
2019-01-31T06:29:02.535Z,0.60
2019-01-31T06:31:50.736Z,0.60
2019-01-31T06:34:39.627Z,0.70
2019-01-31T06:37:28.162Z,0.70
2019-01-31T06:40:17.453Z,0.70
2019-01-31T06:43:05.670Z,0.70
2019-01-31T06:45:56.278Z,0.70
2019-01-31T06:48:43.880Z,0.70
2019-01-31T06:51:32.104Z,0.70
2019-01-31T06:54:20.550Z,0.70
2019-01-31T06:57:08.755Z,0.70
2019-01-31T06:59:57.668Z,0.90
2019-01-31T07:02:45.881Z,0.70
2019-01-31T07:05:34.063Z,0.70
2019-01-31T07:08:22.568Z,0.60
2019-01-31T07:11:10.792Z,0.60
2019-01-31T07:13:59.223Z,0.50
2019-01-31T07:16:47.435Z,0.50
2019-01-31T07:19:16.527Z,0.60
2019-01-31T07:22:04.743Z,0.60
2019-01-31T07:24:45.872Z,0.60
2019-01-31T07:27:26.456Z,0.70
2019-01-31T07:30:07.223Z,0.70
2019-01-31T07:32:47.627Z,0.80
2019-01-31T07:35:28.882Z,0.80
2019-01-31T07:38:09.745Z,0.80
2019-01-31T07:40:51.012Z,0.80
2019-01-31T07:43:31.492Z,0.90
2019-01-31T07:46:12.577Z,0.90
2019-01-31T07:48:53.440Z,0.90
2019-01-31T07:51:34.111Z,1.00
2019-01-31T07:54:15.152Z,1.10
2019-01-31T07:56:56.580Z,1.20
2019-01-31T07:59:37.940Z,1.20
2019-01-31T08:02:18.831Z,1.20
2019-01-31T08:04:59.259Z,1.30
2019-01-31T08:07:40.313Z,1.30
2019-01-31T08:10:21.823Z,1.50
2019-01-31T08:13:02.810Z,1.60
2019-01-31T08:15:43.656Z,1.60
2019-01-31T08:18:24.222Z,1.60
2019-01-31T08:21:05.093Z,1.60
2019-01-31T08:23:45.803Z,1.60
2019-01-31T08:26:26.518Z,1.60
2019-01-31T08:29:06.945Z,1.60
2019-01-31T08:31:47.600Z,1.60
2019-01-31T08:34:28.392Z,1.60
2019-01-31T08:37:08.947Z,1.60
2019-01-31T08:39:49.771Z,1.60
2019-01-31T08:42:30.774Z,1.60
2019-01-31T08:45:11.752Z,1.70
2019-01-31T08:47:53.291Z,1.70
2019-01-31T08:50:34.343Z,1.80
2019-01-31T08:53:15.629Z,1.80
2019-01-31T08:55:57.036Z,1.80
2019-01-31T08:58:38.012Z,1.70
2019-01-31T09:01:07.268Z,1.60
2019-01-31T09:03:37.459Z,1.50
2019-01-31T09:06:06.582Z,1.60
2019-01-31T09:08:55.108Z,1.60
2019-01-31T09:11:43.423Z,1.60
2019-01-31T09:14:31.912Z,1.50
2019-01-31T09:17:21.130Z,1.40
2019-01-31T09:20:10.412Z,1.40
2019-01-31T09:23:04.410Z,1.40
2019-01-31T09:26:12.049Z,1.50
2019-01-31T09:29:19.645Z,1.60
2019-01-31T09:32:26.988Z,1.50
2019-01-31T09:35:18.224Z,1.60
2019-01-31T09:38:13.411Z,1.60
2019-01-31T09:41:21.028Z,1.60
2019-01-31T09:44:02.358Z,1.60
2019-01-31T09:46:43.320Z,1.60
2019-01-31T09:49:24.292Z,1.60
2019-01-31T09:52:05.295Z,1.50
2019-01-31T09:54:46.149Z,1.50
2019-01-31T09:57:27.468Z,1.60
2019-01-31T10:00:08.412Z,1.60
2019-01-31T10:02:49.648Z,1.60
2019-01-31T10:05:30.914Z,1.60
2019-01-31T10:08:11.363Z,1.60
2019-01-31T10:10:52.227Z,1.30
2019-01-31T10:13:33.683Z,1.30
2019-01-31T10:16:14.797Z,1.40
2019-01-31T10:18:55.915Z,1.50
2019-01-31T10:21:37.535Z,1.50
2019-01-31T10:24:19.007Z,1.60
2019-01-31T10:26:59.551Z,1.60
2019-01-31T10:29:40.072Z,1.60
2019-01-31T10:32:20.511Z,1.70
2019-01-31T10:35:01.533Z,1.80
2019-01-31T10:38:03.099Z,1.80
2019-01-31T10:41:10.492Z,1.90
2019-01-31T10:43:51.032Z,2.00
2019-01-31T10:46:31.521Z,2.00
2019-01-31T10:49:12.248Z,2.00
2019-01-31T10:51:53.200Z,1.80
2019-01-31T10:54:34.296Z,1.70
2019-01-31T10:57:15.505Z,1.80
2019-01-31T10:59:56.732Z,1.80
2019-01-31T11:02:37.421Z,1.60
2019-01-31T11:05:18.245Z,1.60
2019-01-31T11:08:00.128Z,1.60
2019-01-31T11:10:41.231Z,1.60
2019-01-31T11:13:22.171Z,1.70
2019-01-31T11:16:03.609Z,1.80
2019-01-31T11:18:45.227Z,1.80
2019-01-31T11:21:25.877Z,1.80
2019-01-31T11:24:06.588Z,1.90
2019-01-31T11:26:47.087Z,2.00
2019-01-31T11:29:27.732Z,2.10
2019-01-31T11:32:08.563Z,2.30
2019-01-31T11:34:49.028Z,2.40
2019-01-31T11:37:30.036Z,2.40
2019-01-31T11:40:11.524Z,2.50
2019-01-31T11:42:52.240Z,2.50
2019-01-31T11:45:32.965Z,2.60
2019-01-31T11:48:13.940Z,2.60
2019-01-31T11:50:54.791Z,2.60
2019-01-31T11:53:36.417Z,2.60
2019-01-31T11:56:17.989Z,2.60
2019-01-31T11:58:58.652Z,2.60
2019-01-31T12:01:39.919Z,2.60
2019-01-31T12:04:28.325Z,2.70
2019-01-31T12:07:16.987Z,2.60
2019-01-31T12:10:05.518Z,2.70
2019-01-31T12:12:53.976Z,2.70
2019-01-31T12:15:42.449Z,2.60
2019-01-31T12:18:30.741Z,2.60
2019-01-31T12:21:19.370Z,2.70
2019-01-31T12:24:16.122Z,2.60
2019-01-31T12:26:57.780Z,2.50
2019-01-31T12:29:46.111Z,2.50
2019-01-31T12:32:34.620Z,2.50
2019-01-31T12:35:22.939Z,2.50
2019-01-31T12:38:11.127Z,2.50
2019-01-31T12:40:59.796Z,2.60
2019-01-31T12:43:40.689Z,2.50
2019-01-31T12:46:21.437Z,2.60
2019-01-31T12:49:02.557Z,2.50
2019-01-31T12:51:43.622Z,2.60
2019-01-31T12:54:24.146Z,2.50
2019-01-31T12:57:04.600Z,2.50
2019-01-31T12:59:45.579Z,2.50
2019-01-31T13:02:26.107Z,2.60
2019-01-31T13:05:07.114Z,2.50
2019-01-31T13:07:48.498Z,2.50
2019-01-31T13:10:29.276Z,2.70
2019-01-31T13:13:10.312Z,2.90
2019-01-31T13:15:50.888Z,3.00
2019-01-31T13:18:32.031Z,2.70
2019-01-31T13:21:13.480Z,2.80
2019-01-31T13:23:55.305Z,2.80
2019-01-31T13:26:36.289Z,2.70
2019-01-31T13:29:17.510Z,2.60
2019-01-31T13:31:58.249Z,2.70
2019-01-31T13:34:39.141Z,2.80
2019-01-31T13:37:19.827Z,2.90
2019-01-31T13:40:00.908Z,2.90
2019-01-31T13:42:41.487Z,2.90
2019-01-31T13:45:22.641Z,2.70
2019-01-31T13:48:03.397Z,2.60
2019-01-31T13:50:44.644Z,2.50
2019-01-31T13:53:25.644Z,2.40
2019-01-31T13:56:07.092Z,2.40
2019-01-31T13:58:47.748Z,2.20
2019-01-31T14:01:28.856Z,2.30
2019-01-31T14:04:10.436Z,2.30
2019-01-31T14:06:50.983Z,2.20
2019-01-31T14:09:31.884Z,2.30
2019-01-31T14:12:12.516Z,2.30
2019-01-31T14:14:54.347Z,2.40
2019-01-31T14:17:34.756Z,2.40
2019-01-31T14:20:15.451Z,2.50
2019-01-31T14:22:56.283Z,2.60
2019-01-31T14:25:37.080Z,2.60
2019-01-31T14:28:18.201Z,2.70
2019-01-31T14:30:59.656Z,2.60
2019-01-31T14:33:40.407Z,2.70
2019-01-31T14:36:21.768Z,2.70
2019-01-31T14:39:04.876Z,2.70
2019-01-31T14:41:45.582Z,2.70
2019-01-31T14:44:26.752Z,2.50
2019-01-31T14:50:11.262Z,2.50
2019-01-31T14:52:59.529Z,2.50
2019-01-31T14:55:47.822Z,2.40
2019-01-31T14:58:36.132Z,2.40
2019-01-31T15:01:25.460Z,2.40
2019-01-31T15:04:16.737Z,2.40
2019-01-31T15:07:05.716Z,2.50
2019-01-31T15:09:54.348Z,2.50
2019-01-31T15:15:50.207Z,2.60
2019-01-31T15:18:39.072Z,2.50
2019-01-31T15:21:27.874Z,2.40
2019-01-31T15:24:16.350Z,2.50
2019-01-31T15:27:08.118Z,2.50
2019-01-31T15:29:56.875Z,2.60
2019-01-31T15:32:45.696Z,2.60
2019-01-31T15:35:34.267Z,2.60
2019-01-31T15:38:22.943Z,2.60
2019-01-31T15:41:11.560Z,2.60
2019-01-31T15:43:52.507Z,2.60
2019-01-31T15:46:22.335Z,2.60
2019-01-31T15:49:11.468Z,2.60
2019-01-31T15:52:00.460Z,2.60
2019-01-31T15:54:49.417Z,2.60
2019-01-31T15:57:38.805Z,2.60
2019-01-31T16:00:46.672Z,2.60
2019-01-31T16:03:35.028Z,2.50
2019-01-31T16:06:23.679Z,2.60
2019-01-31T16:09:12.408Z,2.50
2019-01-31T16:12:01.546Z,2.50
2019-01-31T16:14:54.819Z,2.50
2019-01-31T16:17:34.600Z,2.40
2019-01-31T16:20:16.050Z,2.40
2019-01-31T16:22:57.744Z,2.30
2019-01-31T16:25:38.847Z,2.40
2019-01-31T16:28:20.323Z,2.30
2019-01-31T16:31:01.060Z,2.40
2019-01-31T16:33:41.536Z,2.40
2019-01-31T16:36:22.653Z,2.30
2019-01-31T16:39:03.924Z,2.30
2019-01-31T16:41:33.623Z,2.30
2019-01-31T16:44:02.923Z,2.30
2019-01-31T16:46:51.185Z,2.20
2019-01-31T16:49:20.984Z,2.20
2019-01-31T16:52:09.233Z,2.10
2019-01-31T16:54:57.425Z,2.20
2019-01-31T16:57:46.165Z,2.20
2019-01-31T17:00:34.413Z,2.20
2019-01-31T17:03:22.682Z,2.20
2019-01-31T17:06:10.924Z,2.10
2019-01-31T17:08:59.147Z,2.20
2019-01-31T17:11:47.401Z,2.30
2019-01-31T17:14:35.612Z,2.40
2019-01-31T17:17:23.856Z,2.40
2019-01-31T17:20:14.547Z,2.40
2019-01-31T17:23:03.104Z,2.20
2019-01-31T17:25:51.692Z,2.10
2019-01-31T17:28:40.211Z,2.00
2019-01-31T17:31:28.789Z,2.10
2019-01-31T17:34:10.068Z,2.10
2019-01-31T17:36:51.537Z,2.10
2019-01-31T17:39:32.269Z,2.30
2019-01-31T17:42:13.192Z,2.30
2019-01-31T17:44:53.671Z,2.40
2019-01-31T17:47:34.766Z,2.40
2019-01-31T17:50:15.901Z,2.30
2019-01-31T17:52:56.540Z,2.30
2019-01-31T17:55:26.207Z,2.40
2019-01-31T17:58:15.031Z,2.40
2019-01-31T18:01:03.302Z,2.40
2019-01-31T18:03:51.543Z,2.40
2019-01-31T18:06:39.787Z,2.30
2019-01-31T18:09:27.978Z,2.30
2019-01-31T18:12:16.219Z,2.30
2019-01-31T18:14:45.326Z,2.30
2019-01-31T18:17:33.567Z,2.20
2019-01-31T18:20:21.768Z,2.10
2019-01-31T18:23:10.013Z,2.10
2019-01-31T18:25:58.535Z,2.10
2019-01-31T18:28:46.776Z,2.10
2019-01-31T18:31:34.972Z,1.90
2019-01-31T18:34:16.412Z,1.90
2019-01-31T18:36:57.224Z,1.80
2019-01-31T18:39:37.640Z,1.70
2019-01-31T18:42:18.740Z,1.60
2019-01-31T18:44:59.487Z,1.60
2019-01-31T18:47:41.055Z,1.60
2019-01-31T18:50:21.693Z,1.60
2019-01-31T18:53:03.425Z,1.60
2019-01-31T18:55:33.792Z,1.60
2019-01-31T18:58:22.448Z,1.60
2019-01-31T19:01:10.851Z,1.60
2019-01-31T19:03:59.842Z,1.50
2019-01-31T19:06:48.239Z,1.50
2019-01-31T19:09:37.024Z,1.50
2019-01-31T19:12:26.033Z,1.40
2019-01-31T19:15:14.704Z,1.40
2019-01-31T19:18:05.883Z,1.40
2019-01-31T19:20:52.860Z,1.40
2019-01-31T19:23:41.129Z,1.40
2019-01-31T19:26:29.405Z,1.30
2019-01-31T19:32:13.368Z,1.20
2019-01-31T19:34:54.849Z,1.10
2019-01-31T19:37:36.356Z,1.10
2019-01-31T19:40:07.293Z,1.10
2019-01-31T19:42:36.478Z,1.00
2019-01-31T19:45:44.004Z,1.00
2019-01-31T19:48:32.332Z,1.00
2019-01-31T19:51:20.624Z,1.00
2019-01-31T19:54:09.903Z,0.90
2019-01-31T19:56:58.252Z,0.90
2019-01-31T19:59:47.089Z,1.00
2019-01-31T20:02:35.636Z,1.00
2019-01-31T20:05:24.097Z,1.00
2019-01-31T20:08:05.412Z,1.00
2019-01-31T20:10:46.380Z,0.90
2019-01-31T20:13:27.319Z,0.90
2019-01-31T20:16:08.340Z,0.90
2019-01-31T20:18:49.916Z,0.90
2019-01-31T20:21:19.053Z,0.90
2019-01-31T20:24:07.599Z,0.90
2019-01-31T20:26:55.880Z,0.90
2019-01-31T20:29:44.115Z,0.90
2019-01-31T20:32:32.406Z,1.00
2019-01-31T20:35:20.845Z,1.00
2019-01-31T20:38:09.112Z,1.00
2019-01-31T20:40:57.688Z,1.00
2019-01-31T20:43:27.522Z,1.00
2019-01-31T20:46:15.724Z,0.90
2019-01-31T20:49:04.730Z,1.00
2019-01-31T20:51:53.032Z,1.00
2019-01-31T20:54:41.799Z,1.00
2019-01-31T20:57:30.325Z,1.00
2019-01-31T21:00:39.310Z,1.00
2019-01-31T21:03:27.839Z,1.00
2019-01-31T21:06:16.027Z,1.10
2019-01-31T21:09:06.731Z,1.10
2019-01-31T21:11:54.945Z,1.20
2019-01-31T21:14:43.192Z,1.10
2019-01-31T21:17:31.661Z,1.10
2019-01-31T21:20:20.785Z,1.20
2019-01-31T21:22:50.665Z,1.20
2019-01-31T21:25:39.252Z,1.10
2019-01-31T21:28:27.860Z,1.10
2019-01-31T21:30:57.089Z,1.10
2019-01-31T21:33:45.640Z,1.10
2019-01-31T21:36:34.096Z,1.10
2019-01-31T21:39:22.364Z,1.10
2019-01-31T21:42:10.559Z,1.10
2019-01-31T21:44:59.765Z,1.10
2019-01-31T21:47:48.213Z,1.20
2019-01-31T21:53:07.848Z,1.20
2019-01-31T21:55:48.810Z,1.30
2019-01-31T21:58:30.176Z,1.40
2019-01-31T22:01:11.073Z,1.50
2019-01-31T22:03:51.834Z,1.50
2019-01-31T22:06:22.635Z,1.50
2019-01-31T22:09:10.995Z,1.50
2019-01-31T22:11:59.465Z,1.50
2019-01-31T22:14:47.962Z,1.50
2019-01-31T22:17:36.192Z,1.50
2019-01-31T22:20:24.504Z,1.50
2019-01-31T22:23:13.024Z,1.50
2019-01-31T22:25:42.541Z,1.50
2019-01-31T22:28:11.659Z,1.40
2019-01-31T22:30:59.885Z,1.40
2019-01-31T22:33:48.353Z,1.40
2019-01-31T22:36:36.747Z,1.50
2019-01-31T22:39:25.232Z,1.50
2019-01-31T22:42:13.437Z,1.50
2019-01-31T22:45:01.649Z,1.60
2019-01-31T22:47:50.040Z,1.60
2019-01-31T22:50:38.604Z,1.70
2019-01-31T22:53:19.783Z,1.70
2019-01-31T22:56:01.364Z,1.80
2019-01-31T22:58:41.855Z,1.90
2019-01-31T23:01:41.359Z,1.90
2019-01-31T23:04:21.956Z,2.00
2019-01-31T23:07:03.143Z,1.90
2019-01-31T23:09:44.215Z,1.90
2019-01-31T23:12:25.516Z,1.90
2019-01-31T23:15:06.171Z,1.80
2019-01-31T23:17:47.229Z,1.90
2019-01-31T23:20:28.284Z,1.80
2019-01-31T23:23:09.427Z,1.90
2019-01-31T23:25:50.220Z,1.90
2019-01-31T23:28:31.125Z,1.90
2019-01-31T23:31:12.481Z,2.00
2019-01-31T23:33:53.810Z,1.90
2019-01-31T23:36:35.091Z,2.00
2019-01-31T23:39:16.152Z,2.00
2019-01-31T23:41:57.636Z,2.00
2019-01-31T23:44:38.212Z,2.00
2019-01-31T23:47:19.099Z,2.00
2019-01-31T23:49:59.464Z,2.00
2019-01-31T23:52:40.128Z,2.00
2019-01-31T23:55:21.520Z,2.00
